Terminal Aerodrome Forecast
Issued by NWS

Home | Current Version | Previous Version | Text Only | Print | Product List | Glossary On
Versions: 1 2 3 4 5 6 7 8 9 10 11 12 13 14 15 16 17 18 19 20 21 22 23 24 25 26 27 28 29 30 31 32
000
FTUS45 KLKN 210600 AAA
TAFWMC
TAF AMD
KWMC 210611Z 2106/2206 VRB06KT P6SM VCSH BKN080
      TEMPO 2106/2108 VRB20G35KT 5SM -SHRA BLDU
     FM211200 VRB05KT P6SM -TSRA BKN050CB
     FM220000 VRB05KT P6SM VCSH BKN050=

USA.gov is the U.S. government's official web portal to all federal, state and local government web resources and services.